createdAt,value
2022-10-22T00:01:06.653Z,51.42
2022-10-22T00:03:38.866Z,51.46
2022-10-22T00:06:07.101Z,51.41
2022-10-22T00:08:35.535Z,51.51
2022-10-22T00:11:14.842Z,51.68
2022-10-22T00:13:42.720Z,51.24
2022-10-22T00:16:10.530Z,51.45
2022-10-22T00:18:38.633Z,51.44
2022-10-22T00:21:07.591Z,51.25
2022-10-22T00:23:35.384Z,51.48
2022-10-22T00:26:03.201Z,51.31
2022-10-22T00:28:30.722Z,51.26
2022-10-22T00:31:01.835Z,51.40
2022-10-22T00:33:30.067Z,51.44
2022-10-22T00:35:58.272Z,51.31
2022-10-22T00:38:26.091Z,51.32
2022-10-22T00:40:53.818Z,51.34
2022-10-22T00:43:21.506Z,51.27
2022-10-22T00:45:49.250Z,51.31
2022-10-22T00:48:28.223Z,51.28
2022-10-22T00:51:07.947Z,51.15
2022-10-22T00:53:47.358Z,51.36
2022-10-22T00:56:15.647Z,50.97
2022-10-22T00:58:47.483Z,51.09
2022-10-22T01:01:21.638Z,50.99
2022-10-22T01:03:50.001Z,51.15
2022-10-22T01:06:30.024Z,51.13
2022-10-22T01:09:15.957Z,51.17
2022-10-22T01:12:10.110Z,51.08
2022-10-22T01:15:02.616Z,51.13
2022-10-22T01:17:41.348Z,51.02
2022-10-22T01:20:47.506Z,51.08
2022-10-22T01:23:52.928Z,50.93
2022-10-22T01:26:58.130Z,51.18
2022-10-22T01:29:58.637Z,51.12
2022-10-22T01:32:29.523Z,51.10
2022-10-22T01:35:04.338Z,50.95
2022-10-22T01:37:37.283Z,50.98
2022-10-22T01:40:07.570Z,50.88
2022-10-22T01:42:35.169Z,51.19
2022-10-22T01:45:10.445Z,50.95
2022-10-22T01:47:47.636Z,50.98
2022-10-22T01:50:46.471Z,50.85
2022-10-22T01:53:23.098Z,51.05
2022-10-22T01:55:58.240Z,51.04
2022-10-22T01:58:46.479Z,51.07
2022-10-22T02:01:14.737Z,50.99
2022-10-22T02:03:52.858Z,50.78
2022-10-22T02:06:23.952Z,50.83
2022-10-22T02:08:54.359Z,50.82
2022-10-22T02:11:23.018Z,50.91
2022-10-22T02:13:54.812Z,50.92
2022-10-22T02:16:35.173Z,50.92
2022-10-22T02:19:10.527Z,50.91
2022-10-22T02:21:38.422Z,50.92
2022-10-22T02:24:06.356Z,50.89
2022-10-22T02:26:49.424Z,50.98
2022-10-22T02:29:31.236Z,51.04
2022-10-22T02:32:01.487Z,51.21
2022-10-22T02:34:32.111Z,50.94
2022-10-22T02:37:02.603Z,50.99
2022-10-22T02:39:32.371Z,51.08
2022-10-22T02:42:02.469Z,50.99
2022-10-22T02:44:30.019Z,51.09
2022-10-22T02:46:59.134Z,50.92
2022-10-22T02:49:26.690Z,50.97
2022-10-22T02:51:54.367Z,51.12
2022-10-22T02:54:22.486Z,51.13
2022-10-22T02:56:50.130Z,51.16
2022-10-22T02:59:17.577Z,51.27
2022-10-22T03:01:45.517Z,51.14
2022-10-22T03:04:13.934Z,51.20
2022-10-22T03:06:44.072Z,51.19
2022-10-22T03:09:11.704Z,51.19
2022-10-22T03:11:39.529Z,51.12
2022-10-22T03:14:07.016Z,51.19
2022-10-22T03:16:34.828Z,51.13
2022-10-22T03:19:02.370Z,51.31
2022-10-22T03:21:44.542Z,51.24
2022-10-22T03:24:16.827Z,51.10
2022-10-22T03:26:45.963Z,51.27
2022-10-22T03:29:15.859Z,51.14
2022-10-22T03:31:43.684Z,51.18
2022-10-22T03:34:13.432Z,51.15
2022-10-22T03:36:41.949Z,51.18
2022-10-22T03:39:12.149Z,51.17
2022-10-22T03:41:40.267Z,51.14
2022-10-22T03:44:07.879Z,51.19
2022-10-22T03:46:35.987Z,51.30
2022-10-22T03:49:03.443Z,51.21
2022-10-22T03:51:31.156Z,51.25
2022-10-22T03:53:58.755Z,51.28
2022-10-22T03:56:26.473Z,51.17
2022-10-22T03:58:57.427Z,51.29
2022-10-22T04:01:26.520Z,51.11
2022-10-22T04:03:55.228Z,51.22
2022-10-22T04:06:23.221Z,51.27
2022-10-22T04:08:50.914Z,51.22
2022-10-22T04:11:18.755Z,51.25
2022-10-22T04:13:46.478Z,51.18
2022-10-22T04:16:17.588Z,51.16
2022-10-22T04:18:47.338Z,51.16
2022-10-22T04:21:17.605Z,51.25
2022-10-22T04:23:47.411Z,51.32
2022-10-22T04:26:16.727Z,51.20
2022-10-22T04:28:44.617Z,51.25
2022-10-22T04:31:18.512Z,51.41
2022-10-22T04:33:46.318Z,51.21
2022-10-22T04:36:16.835Z,51.32
2022-10-22T04:38:46.562Z,51.36
2022-10-22T04:41:16.892Z,51.26
2022-10-22T04:43:44.619Z,51.33
2022-10-22T04:46:14.571Z,51.24
2022-10-22T04:48:43.544Z,51.22
2022-10-22T04:51:16.938Z,51.37
2022-10-22T04:53:45.301Z,51.30
2022-10-22T04:56:28.220Z,51.16
2022-10-22T04:59:01.096Z,51.30
2022-10-22T05:01:36.968Z,51.27
2022-10-22T05:04:09.038Z,51.23
2022-10-22T05:06:37.977Z,51.27
2022-10-22T05:09:08.282Z,51.32
2022-10-22T05:11:37.894Z,51.27
2022-10-22T05:14:07.863Z,51.18
2022-10-22T05:16:36.080Z,51.24
2022-10-22T05:19:05.273Z,51.35
2022-10-22T05:21:33.147Z,51.27
2022-10-22T05:24:00.970Z,51.30
2022-10-22T05:26:29.295Z,51.34
2022-10-22T05:28:57.090Z,51.26
2022-10-22T05:31:24.981Z,51.40
2022-10-22T05:33:52.461Z,51.35
2022-10-22T05:36:22.073Z,51.29
2022-10-22T05:38:50.347Z,51.46
2022-10-22T05:41:21.292Z,51.45
2022-10-22T05:43:49.146Z,51.94
2022-10-22T05:46:22.997Z,51.67
2022-10-22T05:48:51.990Z,51.78
2022-10-22T05:51:20.223Z,51.53
2022-10-22T05:53:55.690Z,51.63
2022-10-22T05:56:24.297Z,52.01
2022-10-22T05:58:52.515Z,51.75
2022-10-22T06:01:20.148Z,51.77
2022-10-22T06:03:48.398Z,51.75
2022-10-22T06:06:26.164Z,51.59
2022-10-22T06:08:54.960Z,51.52
2022-10-22T06:11:24.270Z,51.57
2022-10-22T06:13:52.495Z,51.51
2022-10-22T06:16:20.330Z,51.47
2022-10-22T06:18:47.870Z,51.55
2022-10-22T06:21:16.708Z,51.30
2022-10-22T06:23:44.293Z,51.36
2022-10-22T06:26:12.324Z,51.27
2022-10-22T06:28:39.807Z,51.34
2022-10-22T06:31:07.513Z,51.32
2022-10-22T06:33:37.157Z,51.28
2022-10-22T06:36:07.746Z,51.26
2022-10-22T06:38:35.457Z,51.24
2022-10-22T06:41:05.419Z,51.27
2022-10-22T06:43:33.005Z,51.13
2022-10-22T06:46:09.840Z,51.21
2022-10-22T06:48:40.144Z,51.45
2022-10-22T06:51:10.500Z,51.08
2022-10-22T06:53:39.391Z,51.11
2022-10-22T06:56:12.183Z,51.04
2022-10-22T06:58:40.336Z,50.95
2022-10-22T07:01:10.869Z,50.89
2022-10-22T07:03:40.282Z,50.90
2022-10-22T07:06:10.550Z,50.91
2022-10-22T07:08:38.897Z,50.89
2022-10-22T07:11:07.015Z,50.95
2022-10-22T07:13:34.929Z,51.05
2022-10-22T07:16:03.660Z,51.08
2022-10-22T07:18:31.805Z,50.95
2022-10-22T07:21:00.399Z,51.04
2022-10-22T07:23:28.687Z,50.98
2022-10-22T07:28:29.950Z,51.04
2022-10-22T07:30:57.641Z,51.09
2022-10-22T07:33:25.161Z,51.16
2022-10-22T07:36:01.778Z,50.98
2022-10-22T07:38:29.343Z,51.17
2022-10-22T07:40:57.527Z,50.98
2022-10-22T07:43:25.667Z,51.17
2022-10-22T07:45:55.836Z,51.20
2022-10-22T07:48:24.264Z,51.35
2022-10-22T07:50:52.666Z,51.16
2022-10-22T07:53:21.350Z,51.23
2022-10-22T07:55:50.973Z,51.27
2022-10-22T07:58:19.563Z,51.26
2022-10-22T08:00:47.864Z,51.51
2022-10-22T08:03:17.611Z,51.58
2022-10-22T08:05:45.929Z,51.40
2022-10-22T08:08:14.888Z,51.28
2022-10-22T08:10:43.742Z,51.41
2022-10-22T08:13:11.618Z,51.39
2022-10-22T08:15:40.077Z,51.38
2022-10-22T08:18:07.581Z,51.35
2022-10-22T08:20:35.377Z,51.49
2022-10-22T08:23:02.925Z,51.47
2022-10-22T08:25:30.810Z,51.51
2022-10-22T08:27:58.552Z,51.55
2022-10-22T08:30:29.653Z,51.70
2022-10-22T08:32:57.437Z,51.89
2022-10-22T08:35:25.121Z,51.71
2022-10-22T08:37:52.554Z,51.77
2022-10-22T08:40:25.627Z,52.22
2022-10-22T08:43:24.696Z,51.74
2022-10-22T08:46:18.834Z,52.08
2022-10-22T08:48:49.781Z,52.21
2022-10-22T08:51:25.546Z,52.19
2022-10-22T08:54:08.080Z,52.55
2022-10-22T08:56:37.001Z,52.61
2022-10-22T08:59:21.084Z,52.46
2022-10-22T09:01:53.152Z,52.32
2022-10-22T09:04:30.922Z,52.37
2022-10-22T09:07:00.016Z,52.55
2022-10-22T09:09:32.232Z,52.33
2022-10-22T09:12:01.110Z,52.67
2022-10-22T09:14:29.953Z,52.42
2022-10-22T09:17:39.654Z,52.44
2022-10-22T09:20:28.511Z,52.67
2022-10-22T09:23:27.175Z,52.63
2022-10-22T09:25:57.253Z,52.78
2022-10-22T09:28:26.337Z,52.49
2022-10-22T09:30:54.019Z,52.63
2022-10-22T09:33:27.795Z,52.36
2022-10-22T09:35:59.213Z,52.50
2022-10-22T09:38:30.151Z,52.35
2022-10-22T09:41:00.453Z,52.31
2022-10-22T09:43:28.272Z,52.43
2022-10-22T09:46:01.685Z,52.62
2022-10-22T09:48:41.814Z,52.63
2022-10-22T09:51:20.245Z,52.67
2022-10-22T09:53:59.058Z,52.77
2022-10-22T09:56:41.927Z,52.95
2022-10-22T09:59:24.517Z,52.81
2022-10-22T10:02:13.531Z,52.92
2022-10-22T10:04:49.726Z,52.88
2022-10-22T10:07:32.207Z,52.90
2022-10-22T10:10:00.301Z,53.17
2022-10-22T10:15:26.202Z,53.23
2022-10-22T10:18:23.317Z,53.72
2022-10-22T10:21:10.569Z,53.58
2022-10-22T10:23:57.577Z,53.40
2022-10-22T10:26:43.576Z,53.53
2022-10-22T10:29:11.134Z,53.71
2022-10-22T10:32:00.715Z,53.50
2022-10-22T10:34:43.496Z,53.46
2022-10-22T10:38:01.754Z,53.51
2022-10-22T10:40:46.089Z,53.66
2022-10-22T10:43:21.773Z,53.69
2022-10-22T10:46:11.041Z,53.52
2022-10-22T10:49:08.260Z,53.75
2022-10-22T10:51:38.662Z,53.51
2022-10-22T10:54:31.628Z,53.28
2022-10-22T10:57:21.388Z,53.47
2022-10-22T11:00:07.874Z,53.20
2022-10-22T11:02:54.149Z,53.25
2022-10-22T11:05:42.452Z,52.99
2022-10-22T11:08:20.732Z,53.09
2022-10-22T11:10:50.748Z,53.18
2022-10-22T11:13:18.159Z,52.99
2022-10-22T11:15:56.796Z,53.08
2022-10-22T11:18:41.215Z,52.89
2022-10-22T11:21:14.391Z,52.74
2022-10-22T11:23:48.470Z,52.92
2022-10-22T11:26:58.643Z,52.66
2022-10-22T11:29:32.869Z,52.89
2022-10-22T11:32:03.209Z,52.99
2022-10-22T11:34:47.276Z,52.62
2022-10-22T11:37:16.779Z,52.86
2022-10-22T11:40:02.936Z,52.70
2022-10-22T11:42:38.882Z,52.70
2022-10-22T11:45:15.388Z,52.76
2022-10-22T11:48:17.061Z,52.71
2022-10-22T11:50:52.958Z,52.55
2022-10-22T11:53:38.971Z,52.82
2022-10-22T11:56:24.554Z,52.71
2022-10-22T11:58:58.103Z,52.63
2022-10-22T12:01:29.361Z,52.55
2022-10-22T12:04:06.148Z,52.62
2022-10-22T12:06:53.545Z,52.72
2022-10-22T12:09:27.479Z,52.74
2022-10-22T12:11:55.701Z,52.64
2022-10-22T12:14:52.666Z,52.75
2022-10-22T12:17:22.696Z,52.78
2022-10-22T12:20:07.537Z,52.66
2022-10-22T12:22:37.740Z,52.64
2022-10-22T12:25:22.561Z,52.54
2022-10-22T12:27:53.344Z,52.75
2022-10-22T12:30:27.198Z,52.61
2022-10-22T12:33:03.193Z,52.49
2022-10-22T12:35:33.938Z,52.46
2022-10-22T12:38:08.354Z,52.50
2022-10-22T12:40:37.483Z,52.60
2022-10-22T12:43:12.885Z,52.38
2022-10-22T12:45:42.848Z,52.42
2022-10-22T12:48:24.331Z,52.42
2022-10-22T12:50:55.278Z,52.43
2022-10-22T12:53:39.259Z,52.50
2022-10-22T12:56:12.779Z,52.64
2022-10-22T12:59:00.300Z,52.54
2022-10-22T13:01:32.618Z,52.52
2022-10-22T13:04:34.379Z,52.34
2022-10-22T13:07:06.655Z,52.37
2022-10-22T13:09:40.285Z,52.49
2022-10-22T13:12:16.109Z,52.48
2022-10-22T13:14:45.659Z,52.35
2022-10-22T13:17:24.035Z,52.32
2022-10-22T13:19:54.788Z,52.36
2022-10-22T13:22:37.209Z,52.45
2022-10-22T13:25:13.895Z,52.29
2022-10-22T13:27:46.672Z,52.25
2022-10-22T13:30:28.069Z,52.43
2022-10-22T13:33:02.126Z,52.41
2022-10-22T13:35:34.055Z,52.25
2022-10-22T13:38:02.247Z,52.36
2022-10-22T13:40:29.879Z,52.34
2022-10-22T13:42:57.534Z,52.24
2022-10-22T13:45:25.371Z,52.27
2022-10-22T13:47:54.756Z,52.65
2022-10-22T13:50:22.254Z,52.58
2022-10-22T13:52:55.419Z,52.25
2022-10-22T13:55:26.841Z,52.42
2022-10-22T13:57:58.188Z,52.75
2022-10-22T14:00:27.326Z,52.64
2022-10-22T14:02:58.220Z,52.52
2022-10-22T14:05:25.876Z,52.54
2022-10-22T14:07:54.373Z,52.61
2022-10-22T14:10:26.176Z,52.50
2022-10-22T14:12:54.143Z,52.62
2022-10-22T14:15:25.498Z,52.68
2022-10-22T14:17:59.179Z,52.91
2022-10-22T14:20:29.846Z,53.01
2022-10-22T14:23:02.867Z,53.05
2022-10-22T14:25:31.532Z,52.95
2022-10-22T14:27:59.290Z,52.93
2022-10-22T14:30:26.998Z,53.51
2022-10-22T14:32:58.007Z,53.51
2022-10-22T14:35:28.249Z,53.26
2022-10-22T14:37:58.270Z,53.71
2022-10-22T14:40:25.729Z,53.79
2022-10-22T14:42:53.564Z,54.15
2022-10-22T14:45:23.997Z,54.13
2022-10-22T14:47:57.334Z,53.97
2022-10-22T14:50:25.458Z,54.26
2022-10-22T14:52:53.304Z,54.89
2022-10-22T14:55:20.891Z,54.45
2022-10-22T14:57:48.548Z,54.89
2022-10-22T15:00:17.865Z,54.87
2022-10-22T15:02:47.963Z,54.95
2022-10-22T15:05:17.465Z,54.79
2022-10-22T15:07:45.439Z,55.02
2022-10-22T15:10:13.225Z,55.05
2022-10-22T15:12:41.288Z,55.20
2022-10-22T15:15:09.200Z,55.25
2022-10-22T15:17:37.118Z,55.46
2022-10-22T15:20:05.961Z,55.59
2022-10-22T15:22:37.439Z,55.42
2022-10-22T15:25:09.190Z,55.68
2022-10-22T15:27:37.069Z,55.07
2022-10-22T15:30:07.150Z,55.44
2022-10-22T15:32:35.076Z,55.35
2022-10-22T15:35:02.735Z,55.47
2022-10-22T15:37:31.808Z,55.46
2022-10-22T15:40:00.708Z,55.79
2022-10-22T15:42:31.539Z,55.64
2022-10-22T15:45:01.961Z,55.77
2022-10-22T15:47:34.346Z,55.81
2022-10-22T15:50:01.958Z,55.95
2022-10-22T15:52:31.884Z,55.90
2022-10-22T15:54:59.438Z,56.04
2022-10-22T15:57:27.517Z,56.07
2022-10-22T15:59:55.017Z,56.13
2022-10-22T16:02:23.199Z,56.20
2022-10-22T16:04:50.658Z,56.43
2022-10-22T16:07:22.533Z,56.44
2022-10-22T16:09:57.908Z,56.44
2022-10-22T16:12:25.741Z,56.47
2022-10-22T16:14:53.226Z,56.43
2022-10-22T16:17:21.078Z,56.39
2022-10-22T16:19:50.175Z,56.35
2022-10-22T16:22:17.898Z,56.36
2022-10-22T16:24:45.474Z,56.57
2022-10-22T16:27:13.219Z,56.40
2022-10-22T16:29:40.672Z,56.52
2022-10-22T16:32:08.465Z,56.56
2022-10-22T16:34:36.172Z,56.50
2022-10-22T16:37:11.006Z,56.59
2022-10-22T16:39:39.740Z,56.43
2022-10-22T16:42:07.434Z,56.41
2022-10-22T16:44:35.296Z,56.44
2022-10-22T16:47:03.117Z,56.41
2022-10-22T16:49:31.493Z,56.46
2022-10-22T16:51:59.263Z,56.52
2022-10-22T16:54:27.145Z,56.57
2022-10-22T16:56:54.883Z,56.43
2022-10-22T16:59:22.421Z,56.57
2022-10-22T17:01:50.416Z,56.44
2022-10-22T17:04:18.922Z,56.70
2022-10-22T17:06:46.696Z,56.42
2022-10-22T17:09:14.494Z,56.44
2022-10-22T17:11:42.816Z,56.51
2022-10-22T17:14:15.073Z,56.51
2022-10-22T17:16:43.151Z,56.40
2022-10-22T17:19:14.224Z,56.47
2022-10-22T17:21:42.361Z,56.50
2022-10-22T17:24:10.128Z,56.86
2022-10-22T17:26:37.852Z,56.25
2022-10-22T17:29:05.934Z,56.42
2022-10-22T17:31:37.383Z,56.46
2022-10-22T17:34:07.990Z,56.31
2022-10-22T17:36:36.833Z,56.47
2022-10-22T17:39:07.659Z,56.53
2022-10-22T17:41:40.619Z,56.32
2022-10-22T17:44:12.361Z,56.40
2022-10-22T17:46:40.256Z,56.41
2022-10-22T17:49:20.697Z,56.30
2022-10-22T17:51:48.570Z,56.25
2022-10-22T17:54:16.522Z,56.47
2022-10-22T17:56:44.279Z,56.16
2022-10-22T17:59:14.589Z,56.28
2022-10-22T18:01:47.502Z,56.37
2022-10-22T18:04:17.749Z,56.25
2022-10-22T18:06:48.780Z,56.43
2022-10-22T18:09:19.108Z,56.20
2022-10-22T18:11:51.961Z,56.37
2022-10-22T18:14:21.727Z,56.41
2022-10-22T18:16:50.063Z,56.29
2022-10-22T18:19:20.255Z,56.19
2022-10-22T18:21:47.985Z,56.36
2022-10-22T18:24:16.480Z,56.33
2022-10-22T18:26:44.937Z,56.34
2022-10-22T18:29:16.903Z,56.29
2022-10-22T18:31:45.604Z,56.46
2022-10-22T18:34:13.870Z,56.22
2022-10-22T18:36:42.670Z,56.26
2022-10-22T18:39:16.248Z,56.27
2022-10-22T18:41:45.393Z,56.27
2022-10-22T18:44:16.076Z,56.43
2022-10-22T18:46:44.141Z,56.34
2022-10-22T18:49:16.600Z,56.25
2022-10-22T18:51:52.581Z,56.41
2022-10-22T18:54:23.899Z,56.34
2022-10-22T18:57:00.496Z,56.20
2022-10-22T18:59:30.666Z,56.11
2022-10-22T19:02:02.266Z,56.23
2022-10-22T19:04:36.772Z,56.18
2022-10-22T19:09:42.453Z,56.28
2022-10-22T19:12:10.407Z,56.13
2022-10-22T19:14:37.947Z,56.35
2022-10-22T19:17:06.411Z,56.23
2022-10-22T19:19:34.702Z,56.24
2022-10-22T19:22:05.947Z,56.20
2022-10-22T19:24:34.745Z,56.20
2022-10-22T19:27:02.777Z,56.34
2022-10-22T19:29:31.331Z,56.24
2022-10-22T19:31:59.338Z,56.10
2022-10-22T19:34:26.881Z,56.23
2022-10-22T19:36:54.596Z,56.22
2022-10-22T19:39:22.058Z,56.25
2022-10-22T19:41:52.870Z,56.12
2022-10-22T19:44:20.291Z,56.15
2022-10-22T19:46:47.937Z,56.12
2022-10-22T19:49:18.920Z,56.35
2022-10-22T19:51:50.024Z,56.27
2022-10-22T19:54:20.626Z,56.08
2022-10-22T19:56:49.342Z,56.06
2022-10-22T19:59:26.228Z,56.22
2022-10-22T20:01:56.345Z,55.99
2022-10-22T20:04:25.803Z,56.20
2022-10-22T20:06:55.093Z,56.09
2022-10-22T20:09:23.157Z,56.08
2022-10-22T20:11:50.861Z,56.12
2022-10-22T20:14:18.406Z,56.28
2022-10-22T20:16:46.339Z,56.16
2022-10-22T20:19:16.129Z,56.01
2022-10-22T20:21:45.751Z,56.05
2022-10-22T20:24:13.421Z,56.19
2022-10-22T20:26:41.469Z,56.13
2022-10-22T20:29:11.528Z,56.01
2022-10-22T20:31:39.277Z,56.37
2022-10-22T20:34:06.859Z,56.18
2022-10-22T20:36:34.652Z,56.07
2022-10-22T20:39:06.335Z,56.10
2022-10-22T20:41:40.524Z,56.13
2022-10-22T20:44:12.899Z,56.17
2022-10-22T20:46:40.653Z,56.16
2022-10-22T20:49:12.261Z,56.04
2022-10-22T20:51:40.433Z,56.16
2022-10-22T20:54:08.641Z,55.92
2022-10-22T20:56:38.754Z,56.02
2022-10-22T20:59:10.634Z,56.09
2022-10-22T21:01:44.390Z,56.01
2022-10-22T21:04:12.546Z,55.87
2022-10-22T21:06:42.948Z,55.89
2022-10-22T21:09:13.850Z,55.94
2022-10-22T21:11:43.260Z,56.02
2022-10-22T21:14:12.178Z,56.07
2022-10-22T21:16:42.006Z,55.91
2022-10-22T21:19:10.661Z,56.07
2022-10-22T21:21:38.823Z,55.86
2022-10-22T21:24:07.563Z,55.88
2022-10-22T21:26:39.290Z,56.04
2022-10-22T21:29:07.357Z,55.90
2022-10-22T21:31:35.225Z,55.81
2022-10-22T21:34:02.732Z,55.99
2022-10-22T21:36:30.443Z,56.18
2022-10-22T21:38:57.882Z,55.84
2022-10-22T21:41:25.636Z,55.79
2022-10-22T21:43:53.314Z,55.93
2022-10-22T21:46:23.529Z,55.95
2022-10-22T21:48:55.852Z,55.85
2022-10-22T21:51:25.455Z,55.69
2022-10-22T21:53:53.796Z,55.66
2022-10-22T21:56:27.677Z,55.78
2022-10-22T21:58:55.719Z,55.57
2022-10-22T22:01:23.957Z,55.90
2022-10-22T22:03:52.641Z,55.80
2022-10-22T22:06:23.229Z,55.77
2022-10-22T22:08:53.045Z,55.76
2022-10-22T22:11:24.278Z,55.70
2022-10-22T22:13:53.609Z,55.76
2022-10-22T22:16:28.093Z,55.76
2022-10-22T22:18:58.037Z,55.79
2022-10-22T22:21:27.085Z,55.61
2022-10-22T22:23:55.119Z,55.64
2022-10-22T22:26:29.519Z,55.38
2022-10-22T22:29:01.060Z,55.55
2022-10-22T22:31:31.547Z,55.59
2022-10-22T22:34:01.455Z,55.62
2022-10-22T22:36:34.314Z,55.53
2022-10-22T22:39:02.440Z,55.60
2022-10-22T22:41:30.360Z,55.64
2022-10-22T22:43:57.875Z,55.54
2022-10-22T22:46:26.063Z,55.27
2022-10-22T22:48:53.528Z,55.40
2022-10-22T22:51:21.194Z,55.71
2022-10-22T22:53:48.886Z,55.48
2022-10-22T22:56:20.548Z,55.38
2022-10-22T22:58:48.411Z,55.45
2022-10-22T23:01:28.429Z,55.58
2022-10-22T23:03:59.403Z,55.57
2022-10-22T23:06:33.062Z,55.24
2022-10-22T23:09:01.050Z,55.55
2022-10-22T23:11:29.130Z,55.45
2022-10-22T23:14:02.705Z,55.41
2022-10-22T23:16:33.628Z,55.46
2022-10-22T23:19:01.303Z,55.40
2022-10-22T23:21:34.780Z,55.53
2022-10-22T23:24:06.668Z,55.37
2022-10-22T23:26:38.521Z,55.42
2022-10-22T23:29:09.016Z,55.35
2022-10-22T23:31:37.069Z,55.29
2022-10-22T23:34:06.279Z,55.36
2022-10-22T23:36:36.532Z,55.28
2022-10-22T23:39:10.475Z,55.34
2022-10-22T23:41:39.175Z,55.10
2022-10-22T23:44:07.551Z,55.10
2022-10-22T23:46:38.518Z,55.28
2022-10-22T23:49:09.405Z,55.31
2022-10-22T23:51:37.741Z,55.24
2022-10-22T23:54:08.765Z,55.26
2022-10-22T23:56:36.802Z,55.23
2022-10-22T23:59:04.993Z,55.04
